Time;durP1;ratioP1;P1;durP2;ratioP2;P2;SDS_P1;SDS_P2;PMS_P1;PMS_P2;Temp;Humidity;BMP_temperature;BMP_pressure;BME280_temperature;BME280_humidity;BME280_pressure;Samples;Min_cycle;Max_cycle;Signal;HPM_P1;HPM_P2
2022/12/02 00:00:54;;;;;;;20.90;14.97;;;4.10;99.90;;;;;;5089309;28;20378;-73
2022/12/02 00:03:23;;;;;;;21.00;15.80;;;4.10;99.90;;;;;;5089909;28;20374;-73
2022/12/02 00:05:53;;;;;;;22.33;16.20;;;4.00;99.90;;;;;;5094174;28;20373;-73
2022/12/02 00:08:22;;;;;;;21.02;14.15;;;3.90;99.90;;;;;;5093006;28;20389;-73
2022/12/02 00:10:50;;;;;;;21.98;16.35;;;4.00;99.90;;;;;;5093789;28;20455;-73
2022/12/02 00:13:22;;;;;;;21.30;16.00;;;4.00;99.90;;;;;;5093278;28;20759;-73
2022/12/02 00:15:55;;;;;;;21.43;15.10;;;4.00;99.90;;;;;;5094097;28;20845;-73
2022/12/02 00:18:21;;;;;;;18.40;14.90;;;4.10;99.90;;;;;;5093796;28;20389;-73
2022/12/02 00:20:46;;;;;;;19.73;15.38;;;4.00;99.90;;;;;;5093771;28;20417;-73
2022/12/02 00:23:13;;;;;;;19.93;15.10;;;4.20;99.90;;;;;;5093174;28;20402;-73
2022/12/02 00:25:39;;;;;;;18.53;14.90;;;4.30;99.90;;;;;;5093875;28;20382;-73
2022/12/02 00:28:04;;;;;;;19.38;14.75;;;4.60;99.90;;;;;;5093719;28;20482;-73
2022/12/02 00:30:31;;;;;;;18.90;14.80;;;4.50;99.90;;;;;;5093709;28;20453;-73
2022/12/02 00:32:56;;;;;;;18.17;13.90;;;4.60;99.90;;;;;;5092874;28;20369;-73
2022/12/02 00:35:23;;;;;;;18.98;14.48;;;4.30;99.90;;;;;;5093620;28;20470;-73
2022/12/02 00:37:49;;;;;;;17.27;13.88;;;4.10;99.90;;;;;;5093516;28;20409;-73
2022/12/02 00:40:14;;;;;;;19.55;14.38;;;4.00;99.90;;;;;;5093535;28;21066;-73
2022/12/02 00:42:40;;;;;;;18.15;14.93;;;4.00;99.90;;;;;;5092543;28;20378;-73
2022/12/02 00:47:52;;;;;;;17.73;13.77;;;4.30;99.90;;;;;;5093131;28;20947;-73
2022/12/02 00:50:18;;;;;;;19.55;14.98;;;4.20;99.90;;;;;;5093298;28;20461;-73
2022/12/02 00:52:43;;;;;;;18.00;13.75;;;4.30;99.90;;;;;;5092444;28;20381;-73
2022/12/02 00:55:09;;;;;;;16.58;12.30;;;4.40;99.90;;;;;;5093299;28;20792;-73
2022/12/02 00:57:34;;;;;;;16.75;13.73;;;4.20;99.90;;;;;;5093044;28;20721;-73
2022/12/02 01:00:00;;;;;;;19.00;14.13;;;4.10;99.90;;;;;;5093090;28;20421;-73
2022/12/02 01:02:25;;;;;;;18.23;14.90;;;4.20;99.90;;;;;;5092683;28;20382;-73
2022/12/02 01:04:51;;;;;;;21.95;15.25;;;4.10;99.90;;;;;;5092807;28;20385;-73
2022/12/02 01:07:16;;;;;;;20.10;15.20;;;4.20;99.90;;;;;;5093173;28;20378;-73
2022/12/02 01:09:42;;;;;;;20.20;15.73;;;4.10;99.90;;;;;;5081963;28;20380;-73
2022/12/02 01:12:07;;;;;;;22.03;16.17;;;4.20;99.90;;;;;;5072847;28;20777;-73
2022/12/02 01:14:33;;;;;;;21.00;15.50;;;4.10;99.90;;;;;;5071364;28;20380;-73
2022/12/02 01:16:58;;;;;;;21.90;16.50;;;4.10;99.90;;;;;;5072756;28;20382;-73
2022/12/02 01:19:24;;;;;;;23.07;16.20;;;4.20;99.90;;;;;;5072418;28;20968;-73
2022/12/02 01:21:49;;;;;;;21.70;16.27;;;4.30;99.90;;;;;;5072584;28;20449;-73
2022/12/02 01:24:15;;;;;;;22.97;16.60;;;4.40;99.90;;;;;;5071447;28;20891;-73
2022/12/02 01:26:41;;;;;;;21.67;16.57;;;4.50;99.90;;;;;;5072277;28;20384;-73
2022/12/02 01:29:06;;;;;;;22.30;15.85;;;4.10;99.90;;;;;;5072182;28;20387;-73
2022/12/02 01:31:33;;;;;;;21.30;16.43;;;4.10;99.90;;;;;;5072323;28;20475;-73
2022/12/02 01:33:58;;;;;;;24.17;18.05;;;4.20;99.90;;;;;;5071454;28;20379;-73
2022/12/02 01:36:24;;;;;;;23.48;17.30;;;4.10;99.90;;;;;;5072270;28;20411;-73
2022/12/02 01:38:49;;;;;;;23.75;17.75;;;4.10;99.90;;;;;;5071928;28;20394;-73
2022/12/02 01:41:15;;;;;;;22.93;16.97;;;4.20;99.90;;;;;;5072085;28;20383;-73
2022/12/02 01:43:40;;;;;;;24.10;17.80;;;4.20;99.90;;;;;;5071126;28;20755;-72
2022/12/02 01:46:07;;;;;;;28.10;18.10;;;3.90;99.90;;;;;;5072007;28;20372;-72
2022/12/02 01:48:34;;;;;;;25.55;18.48;;;4.10;99.90;;;;;;5070585;28;20421;-72
2022/12/02 01:51:00;;;;;;;24.60;17.95;;;4.00;99.90;;;;;;5072159;28;20391;-73
2022/12/02 01:53:25;;;;;;;25.80;17.80;;;4.10;99.90;;;;;;5071074;28;20870;-73
2022/12/02 01:55:51;;;;;;;25.47;17.63;;;4.10;99.90;;;;;;5071985;28;20455;-73
2022/12/02 01:58:21;;;;;;;24.60;17.20;;;4.00;99.90;;;;;;5071545;28;20886;-73
2022/12/02 02:00:46;;;;;;;23.58;17.15;;;4.00;99.90;;;;;;5071650;28;20410;-73
2022/12/02 02:03:12;;;;;;;25.87;18.23;;;4.00;99.90;;;;;;5070874;28;20388;-71
2022/12/02 02:05:38;;;;;;;24.93;16.73;;;4.10;99.90;;;;;;5071609;28;20415;-71
2022/12/02 02:08:06;;;;;;;25.20;17.80;;;4.10;99.90;;;;;;5071732;28;20808;-73
2022/12/02 02:10:33;;;;;;;23.48;17.20;;;4.10;99.90;;;;;;5087055;28;20404;-73
2022/12/02 02:13:00;;;;;;;22.67;16.40;;;4.20;99.90;;;;;;5089529;28;20461;-73
2022/12/02 02:15:26;;;;;;;21.63;16.30;;;4.10;99.90;;;;;;5091604;28;20860;-73
2022/12/02 02:17:54;;;;;;;23.33;16.55;;;4.10;99.90;;;;;;5091628;28;20421;-73
2022/12/02 02:20:23;;;;;;;23.17;16.00;;;4.10;99.90;;;;;;5091459;28;20401;-73
2022/12/02 02:23:00;;;;;;;25.50;16.55;;;4.10;99.90;;;;;;5090700;28;20390;-73
2022/12/02 02:25:25;;;;;;;23.45;17.33;;;4.30;99.90;;;;;;5091085;28;20427;-73
2022/12/02 02:27:57;;;;;;;21.90;15.90;;;4.40;99.90;;;;;;5089582;28;20378;-73
2022/12/02 02:30:23;;;;;;;23.98;17.10;;;4.20;99.90;;;;;;5091674;28;20876;-73
2022/12/02 02:32:49;;;;;;;23.05;15.98;;;4.20;99.90;;;;;;5089257;28;20815;-73
2022/12/02 02:35:16;;;;;;;25.08;17.48;;;4.20;99.90;;;;;;5091302;28;20381;-73
2022/12/02 02:37:42;;;;;;;21.97;16.90;;;4.10;99.90;;;;;;5091283;28;20435;-72
2022/12/02 02:40:10;;;;;;;26.77;17.93;;;4.00;99.90;;;;;;5090959;28;21204;-73
2022/12/02 02:42:35;;;;;;;22.55;16.55;;;3.90;99.90;;;;;;5090283;28;20431;-73
2022/12/02 02:45:02;;;;;;;21.93;16.67;;;3.90;99.90;;;;;;5091020;28;20379;-73
2022/12/02 02:47:28;;;;;;;23.67;17.08;;;4.00;99.90;;;;;;5091136;28;20418;-73
2022/12/02 02:49:53;;;;;;;22.73;17.17;;;4.10;99.90;;;;;;5090997;28;20797;-73
2022/12/02 02:52:19;;;;;;;24.10;17.10;;;4.00;99.90;;;;;;5090878;28;20752;-73
2022/12/02 02:54:44;;;;;;;29.10;18.27;;;4.00;99.90;;;;;;5088707;28;20393;-73
2022/12/02 02:57:10;;;;;;;24.63;18.43;;;4.00;99.90;;;;;;5090828;28;20381;-72
2022/12/02 02:59:38;;;;;;;20.03;15.57;;;4.10;99.90;;;;;;5090513;28;20402;-73
2022/12/02 03:02:09;;;;;;;21.83;16.17;;;4.10;99.90;;;;;;5090845;28;20370;-73
2022/12/02 03:04:35;;;;;;;25.27;16.55;;;4.00;99.90;;;;;;5089989;28;20374;-73
2022/12/02 03:07:00;;;;;;;22.35;16.10;;;4.10;99.90;;;;;;5090684;28;20748;-73
2022/12/02 03:09:26;;;;;;;25.10;17.63;;;4.20;99.90;;;;;;5089573;28;20394;-73
2022/12/02 03:11:54;;;;;;;25.80;17.73;;;4.00;99.90;;;;;;5090639;28;20386;-73
2022/12/02 03:14:20;;;;;;;23.45;16.35;;;4.10;99.90;;;;;;5071463;28;20477;-73
2022/12/02 03:16:47;;;;;;;24.50;17.70;;;4.00;99.90;;;;;;5090457;28;20421;-73
2022/12/02 03:19:13;;;;;;;25.67;17.40;;;4.00;99.90;;;;;;5090375;28;20810;-73
2022/12/02 03:21:39;;;;;;;24.08;17.98;;;3.80;99.90;;;;;;5072309;28;20384;-73
2022/12/02 03:24:05;;;;;;;24.60;17.90;;;3.90;99.90;;;;;;5089487;28;20756;-73
2022/12/02 03:26:33;;;;;;;23.42;17.65;;;4.00;99.90;;;;;;5090066;28;20378;-73
2022/12/02 03:29:00;;;;;;;24.50;17.50;;;4.00;99.90;;;;;;5090213;28;20386;-73
2022/12/02 03:31:26;;;;;;;25.70;17.43;;;4.30;99.90;;;;;;5089952;28;20417;-73
2022/12/02 03:33:53;;;;;;;25.80;16.83;;;4.30;99.90;;;;;;5089567;28;20378;-73
2022/12/02 03:36:19;;;;;;;23.15;16.75;;;4.20;99.90;;;;;;5090101;28;20816;-73
2022/12/02 03:38:45;;;;;;;23.25;17.73;;;4.30;99.90;;;;;;5089748;28;20382;-73
2022/12/02 03:41:12;;;;;;;24.40;18.25;;;4.30;99.90;;;;;;5090222;28;20752;-73
2022/12/02 03:43:38;;;;;;;25.15;18.00;;;4.40;99.90;;;;;;5088841;28;20388;-73
2022/12/02 03:46:05;;;;;;;26.00;18.00;;;4.30;99.90;;;;;;5071432;28;20378;-73
2022/12/02 03:48:32;;;;;;;23.20;17.70;;;4.30;99.90;;;;;;5090402;28;20890;-71
2022/12/02 03:50:58;;;;;;;25.55;18.95;;;4.30;99.90;;;;;;5089576;28;20382;-71
2022/12/02 03:53:23;;;;;;;26.88;18.83;;;4.10;99.90;;;;;;5088875;28;20400;-71
2022/12/02 03:55:49;;;;;;;25.35;18.70;;;4.20;99.90;;;;;;5089553;28;20447;-71
2022/12/02 03:58:15;;;;;;;28.60;19.30;;;4.10;99.90;;;;;;5089763;28;20400;-71
2022/12/02 04:00:41;;;;;;;27.87;18.67;;;4.10;99.90;;;;;;5089826;28;20904;-71
2022/12/02 04:03:06;;;;;;;25.67;18.23;;;4.10;99.90;;;;;;5088714;28;20382;-72
2022/12/02 04:05:32;;;;;;;28.07;18.57;;;4.10;99.90;;;;;;5089418;28;20451;-71
2022/12/02 04:07:58;;;;;;;28.17;19.60;;;4.00;99.90;;;;;;5089841;28;20463;-71
2022/12/02 04:10:24;;;;;;;26.92;18.30;;;4.00;99.90;;;;;;5089091;28;20860;-71
2022/12/02 04:12:49;;;;;;;30.08;19.02;;;4.20;99.90;;;;;;5088505;28;20386;-71
2022/12/02 04:15:15;;;;;;;25.75;17.77;;;4.00;99.90;;;;;;5089515;28;20740;-71
2022/12/02 04:17:40;;;;;;;29.27;19.67;;;4.00;99.90;;;;;;5089002;28;20394;-71
2022/12/02 04:20:07;;;;;;;26.75;18.52;;;4.00;99.90;;;;;;5089957;28;20401;-73
2022/12/02 04:22:33;;;;;;;28.55;19.15;;;3.80;99.90;;;;;;5088393;28;20378;-72
2022/12/02 04:25:01;;;;;;;30.38;19.50;;;3.80;99.90;;;;;;5089171;28;21024;-72
2022/12/02 04:27:27;;;;;;;30.47;20.00;;;3.80;99.90;;;;;;5089403;28;20382;-72
2022/12/02 04:29:52;;;;;;;31.80;20.33;;;3.60;99.90;;;;;;5089694;28;20381;-73
2022/12/02 04:32:18;;;;;;;30.83;20.10;;;3.70;99.90;;;;;;5089710;28;20378;-73
2022/12/02 04:34:43;;;;;;;31.77;20.60;;;3.70;99.90;;;;;;5089402;28;20463;-72
2022/12/02 04:37:09;;;;;;;31.77;20.40;;;3.80;99.90;;;;;;5071340;28;20393;-72
2022/12/02 04:39:35;;;;;;;32.17;20.67;;;3.70;99.90;;;;;;5089743;28;20405;-72
2022/12/02 04:42:00;;;;;;;30.67;19.38;;;3.60;99.90;;;;;;5089922;28;20385;-72
2022/12/02 04:44:26;;;;;;;27.83;18.88;;;3.50;99.90;;;;;;5088717;28;20382;-72
2022/12/02 04:46:51;;;;;;;32.30;19.60;;;3.70;99.90;;;;;;5089892;28;20374;-72
2022/12/02 04:49:17;;;;;;;29.20;18.17;;;4.00;99.90;;;;;;5090209;28;20413;-72
2022/12/02 04:51:43;;;;;;;27.65;18.10;;;3.90;99.90;;;;;;5093498;28;20385;-72
2022/12/02 04:54:08;;;;;;;28.33;17.93;;;4.00;99.90;;;;;;5092283;28;20876;-73
2022/12/02 04:56:34;;;;;;;27.37;18.20;;;4.00;99.90;;;;;;5093128;28;20407;-72
2022/12/02 04:58:59;;;;;;;24.63;17.60;;;4.10;99.90;;;;;;5093287;28;20484;-72
2022/12/02 05:01:25;;;;;;;28.50;18.00;;;4.00;99.90;;;;;;5092457;28;20378;-72
2022/12/02 05:03:50;;;;;;;27.00;17.90;;;4.10;99.90;;;;;;5092278;28;20852;-72
2022/12/02 05:06:16;;;;;;;28.03;18.03;;;4.10;99.90;;;;;;5092558;28;20866;-72
2022/12/02 05:08:41;;;;;;;26.70;17.90;;;4.10;99.90;;;;;;5091882;28;20373;-72
2022/12/02 05:11:07;;;;;;;27.98;17.25;;;4.00;99.90;;;;;;5093065;28;20409;-72
2022/12/02 05:13:32;;;;;;;26.38;17.52;;;4.20;99.90;;;;;;5091170;28;20920;-72
2022/12/02 05:15:58;;;;;;;24.77;17.20;;;4.30;99.90;;;;;;5091973;28;20378;-72
2022/12/02 05:18:24;;;;;;;25.95;17.35;;;4.20;99.90;;;;;;5092594;28;20737;-72
2022/12/02 05:20:49;;;;;;;26.10;16.80;;;4.20;99.90;;;;;;5090668;28;20476;-72
2022/12/02 05:23:15;;;;;;;22.30;16.80;;;4.10;99.90;;;;;;5091847;28;20393;-72
2022/12/02 05:25:40;;;;;;;26.10;17.07;;;4.20;99.90;;;;;;5092537;28;20385;-72
2022/12/02 05:28:06;;;;;;;24.40;16.80;;;4.20;99.90;;;;;;5092626;28;20405;-72
2022/12/02 05:30:31;;;;;;;24.30;16.27;;;4.10;99.90;;;;;;5092600;28;20418;-72
2022/12/02 05:32:57;;;;;;;26.50;16.53;;;4.10;99.90;;;;;;5091480;28;20392;-72
2022/12/02 05:35:22;;;;;;;23.73;16.13;;;4.10;99.90;;;;;;5091863;28;20389;-72
2022/12/02 05:37:48;;;;;;;22.33;15.60;;;4.10;99.90;;;;;;5092555;28;20390;-72
2022/12/02 05:40:13;;;;;;;25.88;15.63;;;4.30;99.90;;;;;;5092100;28;20408;-72
2022/12/02 05:42:40;;;;;;;20.55;15.13;;;4.20;99.90;;;;;;5091203;28;20413;-72
2022/12/02 05:45:19;;;;;;;22.70;15.85;;;4.10;99.90;;;;;;5092356;28;20386;-72
2022/12/02 05:47:54;;;;;;;21.40;15.97;;;4.00;99.90;;;;;;5092070;28;20931;-72
2022/12/02 05:50:21;;;;;;;21.45;14.38;;;4.10;99.90;;;;;;5091023;28;20382;-72
2022/12/02 05:52:48;;;;;;;22.05;15.00;;;4.20;99.90;;;;;;5091114;28;20390;-72
2022/12/02 05:55:19;;;;;;;21.95;15.05;;;4.20;99.90;;;;;;5091608;28;20382;-72
2022/12/02 05:57:45;;;;;;;24.73;16.30;;;4.20;99.90;;;;;;5091330;28;20378;-72
2022/12/02 06:00:21;;;;;;;25.65;17.98;;;4.30;99.90;;;;;;5091518;28;20434;-72
2022/12/02 06:02:49;;;;;;;21.40;15.32;;;4.30;99.90;;;;;;5091020;28;20389;-73
2022/12/02 06:05:30;;;;;;;21.20;15.63;;;4.20;99.90;;;;;;5092301;28;20805;-72
2022/12/02 06:08:13;;;;;;;23.33;16.50;;;4.20;99.90;;;;;;5092655;28;20721;-72
2022/12/02 06:10:41;;;;;;;26.17;17.20;;;4.20;99.90;;;;;;5091284;28;20389;-72
2022/12/02 06:13:17;;;;;;;26.58;17.88;;;4.20;99.90;;;;;;5091359;28;20406;-72
2022/12/02 06:15:42;;;;;;;24.15;16.55;;;4.20;99.90;;;;;;5092309;28;20476;-73
2022/12/02 06:18:23;;;;;;;22.50;15.43;;;4.20;99.90;;;;;;5091912;28;20462;-73
2022/12/02 06:21:16;;;;;;;23.80;16.43;;;4.30;99.90;;;;;;5090762;28;20406;-73
2022/12/02 06:23:48;;;;;;;24.52;18.38;;;4.40;99.90;;;;;;5088180;28;20409;-73
2022/12/02 06:26:14;;;;;;;27.17;17.20;;;4.30;99.90;;;;;;5090566;28;20420;-73
2022/12/02 06:28:43;;;;;;;25.87;17.53;;;4.30;99.90;;;;;;5091811;28;20386;-73
2022/12/02 06:31:29;;;;;;;25.50;18.05;;;4.10;99.90;;;;;;5077239;28;20390;-73
2022/12/02 06:33:57;;;;;;;28.55;18.83;;;4.20;99.90;;;;;;5076845;28;20394;-72
2022/12/02 06:36:26;;;;;;;31.60;18.85;;;4.10;99.90;;;;;;5083537;28;20413;-72
2022/12/02 06:39:00;;;;;;;26.98;17.92;;;4.10;99.90;;;;;;5084176;28;20748;-72
2022/12/02 06:41:31;;;;;;;25.13;17.27;;;4.20;99.90;;;;;;5089502;28;20374;-73
2022/12/02 06:47:35;;;;;;;24.20;16.80;;;4.20;99.90;;;;;;5077706;28;20461;-72
2022/12/02 06:50:03;;;;;;;23.25;17.42;;;4.20;99.90;;;;;;5069178;28;20418;-72
2022/12/02 06:52:41;;;;;;;21.77;15.93;;;4.30;99.90;;;;;;5069338;28;20384;-72
2022/12/02 06:55:31;;;;;;;23.03;16.80;;;4.20;99.90;;;;;;5070026;28;20376;-71
2022/12/02 06:58:11;;;;;;;24.80;16.05;;;4.30;99.90;;;;;;5061624;28;20989;-72
2022/12/02 07:00:38;;;;;;;23.70;15.98;;;4.30;99.90;;;;;;5071094;28;20400;-72
2022/12/02 07:03:17;;;;;;;22.80;16.05;;;4.30;99.90;;;;;;5051951;28;20386;-72
2022/12/02 07:05:43;;;;;;;23.30;16.35;;;4.50;99.90;;;;;;5070782;28;20439;-72
2022/12/02 07:08:09;;;;;;;20.88;15.98;;;4.40;99.90;;;;;;5070743;28;20745;-72
2022/12/02 07:10:35;;;;;;;24.35;16.63;;;4.30;99.90;;;;;;5086826;28;20413;-72
2022/12/02 07:13:12;;;;;;;24.53;16.73;;;4.40;99.90;;;;;;5088449;28;20417;-72
2022/12/02 07:15:40;;;;;;;23.35;15.93;;;4.40;99.90;;;;;;5089678;28;20382;-72
2022/12/02 07:18:18;;;;;;;26.13;16.17;;;4.40;99.90;;;;;;5090762;28;20726;-72
2022/12/02 07:20:45;;;;;;;23.80;16.52;;;4.40;99.90;;;;;;5091020;28;20405;-72
2022/12/02 07:23:25;;;;;;;29.05;18.10;;;4.40;99.90;;;;;;5089613;28;20391;-72
2022/12/02 07:25:55;;;;;;;30.83;20.00;;;4.30;99.90;;;;;;5090840;28;20398;-72
2022/12/02 07:28:29;;;;;;;30.45;19.90;;;4.60;99.90;;;;;;5090638;28;20431;-72
2022/12/02 07:31:11;;;;;;;27.67;18.63;;;4.60;99.90;;;;;;5091030;28;20888;-72
2022/12/02 07:33:37;;;;;;;29.95;19.45;;;4.60;99.90;;;;;;5089781;28;20756;-72
2022/12/02 07:36:02;;;;;;;31.30;19.80;;;4.50;99.90;;;;;;5090658;28;20378;-72
2022/12/02 07:38:28;;;;;;;32.23;19.60;;;4.50;99.90;;;;;;5090329;28;20413;-72
2022/12/02 07:40:54;;;;;;;36.53;20.90;;;4.60;99.90;;;;;;5090342;28;20892;-73
2022/12/02 07:43:19;;;;;;;33.40;21.33;;;4.70;99.90;;;;;;5088096;28;20393;-73
2022/12/02 07:45:45;;;;;;;34.80;20.80;;;4.50;99.90;;;;;;5090606;28;20457;-72
2022/12/02 07:48:11;;;;;;;37.07;22.30;;;4.30;99.90;;;;;;5090413;28;20382;-72
2022/12/02 07:50:37;;;;;;;37.00;21.35;;;4.20;99.90;;;;;;5105227;22;20496;-71
2022/12/02 07:53:02;;;;;;;37.88;23.13;;;4.30;99.90;;;;;;5067448;28;20384;-72
2022/12/02 07:55:28;;;;;;;34.30;21.25;;;4.20;99.90;;;;;;5070230;28;20383;-71
2022/12/02 07:57:54;;;;;;;36.30;23.08;;;4.30;99.90;;;;;;5052052;28;20383;-72
2022/12/02 08:00:20;;;;;;;38.60;21.80;;;4.20;99.90;;;;;;5069974;28;20400;-71
2022/12/02 08:02:46;;;;;;;34.20;21.15;;;4.30;99.90;;;;;;5061929;28;20476;-70
2022/12/02 08:05:11;;;;;;;34.35;21.05;;;4.60;99.90;;;;;;5067525;28;20530;-70
2022/12/02 08:07:37;;;;;;;39.00;21.20;;;4.50;99.90;;;;;;5070173;28;20404;-71
2022/12/02 08:10:04;;;;;;;35.13;20.73;;;4.50;99.90;;;;;;5069928;28;20886;-70
2022/12/02 08:12:29;;;;;;;35.92;21.67;;;4.30;99.90;;;;;;5068449;28;20435;-70
2022/12/02 08:14:55;;;;;;;36.10;20.90;;;4.30;99.90;;;;;;5069405;28;20473;-70
2022/12/02 08:17:21;;;;;;;37.27;21.70;;;4.20;99.90;;;;;;5051993;28;20402;-70
2022/12/02 08:19:46;;;;;;;42.53;23.60;;;4.20;99.90;;;;;;5069837;28;20403;-71
2022/12/02 08:22:12;;;;;;;37.73;22.97;;;4.30;99.90;;;;;;5069872;28;20394;-70
2022/12/02 08:24:37;;;;;;;40.90;22.70;;;4.20;99.90;;;;;;5069939;28;20462;-70
2022/12/02 08:27:03;;;;;;;35.70;22.10;;;4.40;99.90;;;;;;5073745;28;20383;-70
2022/12/02 08:29:29;;;;;;;35.80;21.90;;;4.30;99.90;;;;;;5073477;28;20475;-71
2022/12/02 08:31:55;;;;;;;35.58;20.75;;;4.40;99.90;;;;;;5051961;28;21039;-71
2022/12/02 08:34:20;;;;;;;33.83;19.80;;;4.20;99.90;;;;;;5072554;28;20388;-71
2022/12/02 08:36:46;;;;;;;34.85;21.33;;;4.10;99.90;;;;;;5073447;28;20379;-71
2022/12/02 08:39:11;;;;;;;37.67;21.70;;;4.30;99.90;;;;;;5073388;28;20403;-71
2022/12/02 08:41:37;;;;;;;34.88;20.40;;;4.40;99.90;;;;;;5068686;28;20479;-71
2022/12/02 08:44:04;;;;;;;35.80;20.52;;;4.40;99.90;;;;;;5054772;28;20384;-71
2022/12/02 08:46:30;;;;;;;32.38;19.55;;;4.40;99.90;;;;;;5073494;28;20722;-71
2022/12/02 08:48:56;;;;;;;34.40;20.35;;;4.40;99.90;;;;;;5073567;28;20421;-71
2022/12/02 08:51:22;;;;;;;33.63;19.42;;;4.30;99.90;;;;;;5073196;28;20391;-71
2022/12/02 08:53:47;;;;;;;32.47;19.00;;;4.20;99.90;;;;;;5072480;28;20392;-71
2022/12/02 08:56:13;;;;;;;30.03;18.87;;;4.30;99.90;;;;;;5073041;28;20809;-71
2022/12/02 08:58:39;;;;;;;31.17;19.47;;;4.40;99.90;;;;;;5073088;28;20403;-71
2022/12/02 09:01:05;;;;;;;30.10;18.10;;;4.50;99.90;;;;;;5072882;28;20411;-70
2022/12/02 09:03:31;;;;;;;28.38;17.75;;;4.50;99.90;;;;;;5072253;28;20394;-71
2022/12/02 09:05:56;;;;;;;30.13;18.87;;;4.50;99.90;;;;;;5072859;28;20824;-71
2022/12/02 09:08:22;;;;;;;28.70;18.03;;;4.40;99.90;;;;;;5072788;28;20459;-71
2022/12/02 09:10:48;;;;;;;31.10;19.27;;;4.40;99.90;;;;;;5072708;28;20425;-71
2022/12/02 09:13:14;;;;;;;29.83;17.90;;;4.50;99.90;;;;;;5071044;28;20394;-72
2022/12/02 09:15:40;;;;;;;31.00;18.42;;;4.50;99.90;;;;;;5072983;28;21112;-73
2022/12/02 09:18:05;;;;;;;27.13;17.73;;;4.50;99.90;;;;;;5072880;28;20383;-71
2022/12/02 09:20:31;;;;;;;31.97;20.43;;;4.40;99.90;;;;;;5072605;28;20498;-72
2022/12/02 09:22:56;;;;;;;30.92;18.80;;;4.50;99.90;;;;;;5072127;28;20464;-72
2022/12/02 09:25:22;;;;;;;29.95;18.83;;;4.50;99.90;;;;;;5072995;28;20921;-72
2022/12/02 09:27:48;;;;;;;29.05;18.60;;;4.50;99.90;;;;;;5072590;28;20475;-71
2022/12/02 09:30:14;;;;;;;28.42;17.83;;;4.40;99.90;;;;;;5072497;28;20422;-71
2022/12/02 09:32:40;;;;;;;29.05;18.15;;;4.50;99.90;;;;;;5072002;28;20755;-72
2022/12/02 09:35:06;;;;;;;26.98;17.48;;;4.50;99.90;;;;;;5072186;28;20477;-71
2022/12/02 09:37:32;;;;;;;32.85;19.08;;;4.50;99.90;;;;;;5072513;28;20768;-71
2022/12/02 09:39:58;;;;;;;30.00;18.05;;;4.50;99.90;;;;;;5072101;28;20396;-70
2022/12/02 09:42:23;;;;;;;28.20;18.10;;;4.50;99.90;;;;;;5072077;28;20441;-71
2022/12/02 09:44:49;;;;;;;31.17;18.75;;;4.50;99.90;;;;;;5071859;28;20379;-71
2022/12/02 09:47:17;;;;;;;29.40;17.63;;;4.60;99.90;;;;;;5072518;28;20506;-71
2022/12/02 09:49:44;;;;;;;27.50;18.05;;;4.70;99.90;;;;;;5071998;28;20384;-71
2022/12/02 09:52:29;;;;;;;30.67;18.80;;;4.60;99.90;;;;;;5070004;28;20892;-70
2022/12/02 09:54:57;;;;;;;28.15;18.80;;;4.70;99.90;;;;;;5070637;28;20406;-70
2022/12/02 09:57:29;;;;;;;31.75;18.90;;;4.60;99.90;;;;;;5072462;28;20380;-70
2022/12/02 09:59:57;;;;;;;29.67;19.80;;;4.70;99.90;;;;;;5071639;28;20797;-71
2022/12/02 10:02:41;;;;;;;34.55;20.00;;;4.80;99.90;;;;;;5053189;28;20501;-70
2022/12/02 10:05:18;;;;;;;33.53;20.17;;;4.70;99.90;;;;;;5072317;28;20388;-71
2022/12/02 10:07:45;;;;;;;30.02;19.45;;;4.80;99.90;;;;;;5070981;28;20470;-71
2022/12/02 10:10:12;;;;;;;31.10;20.08;;;4.80;99.90;;;;;;5071761;28;20743;-70
2022/12/02 10:12:38;;;;;;;29.53;18.40;;;4.80;99.90;;;;;;5071251;28;20376;-70
2022/12/02 10:15:04;;;;;;;31.48;19.13;;;4.80;99.90;;;;;;5071934;28;20746;-70
2022/12/02 10:17:30;;;;;;;27.65;19.13;;;4.70;99.90;;;;;;5071564;28;20390;-70
2022/12/02 10:19:56;;;;;;;32.17;20.10;;;4.80;99.90;;;;;;5071418;28;20411;-70
2022/12/02 10:22:21;;;;;;;32.83;20.27;;;4.70;99.90;;;;;;5071813;28;20462;-71
2022/12/02 10:24:48;;;;;;;32.38;19.92;;;4.60;99.90;;;;;;5070912;28;20383;-70
2022/12/02 10:27:31;;;;;;;28.48;18.80;;;4.70;99.90;;;;;;5071582;28;20746;-70
2022/12/02 10:30:22;;;;;;;31.23;18.10;;;4.70;99.90;;;;;;5071121;28;20372;-71
2022/12/02 10:33:02;;;;;;;32.60;19.83;;;4.50;99.90;;;;;;5070555;28;20383;-71
2022/12/02 10:35:46;;;;;;;33.17;20.00;;;4.40;99.90;;;;;;5071349;28;20807;-71
2022/12/02 10:38:33;;;;;;;33.85;19.30;;;4.60;99.90;;;;;;5071375;28;20723;-71
2022/12/02 10:41:14;;;;;;;30.98;18.50;;;4.80;99.90;;;;;;5071000;28;20542;-71
2022/12/02 10:43:41;;;;;;;32.28;19.20;;;4.50;99.90;;;;;;5070472;28;20382;-71
2022/12/02 10:46:08;;;;;;;30.27;18.17;;;4.70;99.90;;;;;;5053271;28;20390;-71
2022/12/02 10:48:36;;;;;;;31.38;19.20;;;4.50;99.90;;;;;;5070446;28;20394;-71
2022/12/02 10:51:02;;;;;;;30.02;18.55;;;4.70;99.90;;;;;;5070869;28;20407;-72
2022/12/02 10:53:29;;;;;;;27.63;16.97;;;4.50;99.90;;;;;;5070350;28;20376;-72
2022/12/02 10:55:55;;;;;;;32.55;18.17;;;4.50;99.90;;;;;;5071193;28;20921;-71
2022/12/02 10:58:27;;;;;;;30.65;18.90;;;4.60;99.90;;;;;;5071096;28;20766;-71
2022/12/02 11:00:54;;;;;;;29.53;18.13;;;4.70;99.90;;;;;;5070716;28;20403;-72
2022/12/02 11:03:19;;;;;;;28.90;18.08;;;4.80;99.90;;;;;;5070011;28;20437;-71
2022/12/02 11:05:45;;;;;;;27.40;16.57;;;4.90;99.90;;;;;;5070666;28;20380;-71
2022/12/02 11:08:26;;;;;;;27.77;18.03;;;4.70;99.90;;;;;;5069048;28;20380;-70
2022/12/02 11:11:06;;;;;;;26.45;17.42;;;4.70;99.90;;;;;;5070627;28;20467;-70
2022/12/02 11:13:56;;;;;;;27.45;18.75;;;4.60;99.90;;;;;;5069861;28;20384;-71
2022/12/02 11:16:27;;;;;;;26.65;17.83;;;4.70;99.90;;;;;;5070592;28;20938;-71
2022/12/02 11:19:09;;;;;;;29.17;18.67;;;4.80;99.90;;;;;;5070594;28;20818;-71
2022/12/02 11:21:43;;;;;;;28.45;18.60;;;4.80;99.90;;;;;;5070405;28;20491;-71
2022/12/02 11:24:26;;;;;;;31.70;20.13;;;4.70;99.90;;;;;;5069896;28;20388;-71
2022/12/02 11:27:01;;;;;;;34.08;19.00;;;4.80;99.90;;;;;;5070394;28;20386;-71
2022/12/02 11:29:42;;;;;;;31.63;18.73;;;4.70;99.90;;;;;;5070527;28;20743;-71
2022/12/02 11:32:16;;;;;;;28.88;18.10;;;4.80;99.90;;;;;;5070165;28;20396;-71
2022/12/02 11:34:53;;;;;;;32.03;18.80;;;4.80;99.90;;;;;;5069663;28;20893;-71
2022/12/02 11:37:28;;;;;;;30.63;18.40;;;4.80;99.90;;;;;;5070361;28;20387;-71
2022/12/02 11:39:54;;;;;;;27.25;18.27;;;4.80;99.90;;;;;;5070146;28;20399;-71
2022/12/02 11:42:26;;;;;;;30.05;18.52;;;4.80;99.90;;;;;;5070227;28;20382;-71
2022/12/02 11:44:53;;;;;;;29.67;17.08;;;4.80;99.90;;;;;;5070082;28;20459;-71
2022/12/02 11:47:28;;;;;;;26.77;17.45;;;4.80;99.90;;;;;;5070292;28;20873;-71
2022/12/02 11:49:56;;;;;;;26.45;17.13;;;4.60;99.90;;;;;;5070295;28;20379;-71
2022/12/02 11:52:24;;;;;;;27.20;17.27;;;4.50;99.90;;;;;;5070191;28;20388;-71
2022/12/02 11:54:51;;;;;;;30.38;18.17;;;4.70;99.90;;;;;;5069858;28;20387;-71
2022/12/02 11:57:25;;;;;;;27.75;17.23;;;4.60;99.90;;;;;;5070494;28;20458;-72
2022/12/02 11:59:52;;;;;;;29.70;17.88;;;4.50;99.90;;;;;;5073474;28;20473;-71
2022/12/02 12:02:20;;;;;;;28.80;17.80;;;4.40;99.90;;;;;;5074111;28;20388;-71
2022/12/02 12:05:00;;;;;;;28.42;16.90;;;4.50;99.90;;;;;;5073477;28;20388;-71
2022/12/02 12:07:44;;;;;;;26.30;17.45;;;4.60;99.90;;;;;;5072186;28;20372;-71
2022/12/02 12:10:25;;;;;;;24.10;16.42;;;4.40;99.90;;;;;;5073994;28;20395;-71
2022/12/02 12:13:15;;;;;;;23.33;15.90;;;4.40;99.90;;;;;;5073309;28;20394;-71
2022/12/02 12:15:51;;;;;;;26.70;16.30;;;4.40;99.90;;;;;;5074010;28;20380;-70
2022/12/02 12:18:40;;;;;;;23.75;16.90;;;4.40;99.90;;;;;;5056058;28;20388;-72
2022/12/02 12:21:06;;;;;;;26.83;17.05;;;4.50;99.90;;;;;;5055665;28;20442;-70
2022/12/02 12:23:37;;;;;;;30.13;16.97;;;4.60;99.90;;;;;;5073110;28;20893;-70
2022/12/02 12:26:04;;;;;;;24.38;15.75;;;4.70;99.90;;;;;;5072724;28;20437;-70
2022/12/02 12:28:32;;;;;;;27.65;17.08;;;4.90;99.90;;;;;;5050041;28;20393;-71
2022/12/02 12:31:00;;;;;;;24.20;15.20;;;4.70;99.90;;;;;;5071200;28;20450;-71
2022/12/02 12:33:26;;;;;;;25.98;16.73;;;4.70;99.90;;;;;;5072764;28;20387;-72
2022/12/02 12:35:53;;;;;;;22.42;15.68;;;4.80;99.90;;;;;;5073304;28;20388;-72
2022/12/02 12:38:20;;;;;;;24.63;15.35;;;4.80;99.90;;;;;;5072101;28;20440;-72
2022/12/02 12:40:45;;;;;;;21.35;15.02;;;4.80;99.90;;;;;;5071904;28;20969;-72
2022/12/02 12:43:11;;;;;;;23.63;15.30;;;4.90;99.90;;;;;;5072208;28;20490;-70
2022/12/02 12:45:36;;;;;;;21.50;14.45;;;5.00;99.90;;;;;;5073203;28;20769;-70
2022/12/02 12:48:02;;;;;;;22.73;14.70;;;5.00;99.90;;;;;;5073441;28;20873;-71